Time;durP1;ratioP1;P1;durP2;ratioP2;P2;SDS_P1;SDS_P2;PMS_P1;PMS_P2;Temp;Humidity;BMP_temperature;BMP_pressure;BME280_temperature;BME280_humidity;BME280_pressure;Samples;Min_cycle;Max_cycle;Signal;HPM_P1;HPM_P2
2023/04/20 00:02:20;;;;;;;13.40;4.60;;;;;;;15.76;67.73;100804.54;106511;1275;22521;-56
2023/04/20 00:04:49;;;;;;;9.20;3.90;;;;;;;15.76;67.72;100807.03;106842;1268;25345;-56
2023/04/20 00:07:18;;;;;;;8.60;4.00;;;;;;;15.76;67.92;100806.33;107035;1268;23301;-56
2023/04/20 00:09:46;;;;;;;6.10;3.60;;;;;;;15.75;67.88;100809.52;107006;1268;22568;-56
2023/04/20 00:12:15;;;;;;;7.20;4.10;;;;;;;15.74;68.01;100807.78;106934;1269;25370;-56
2023/04/20 00:14:44;;;;;;;8.90;3.20;;;;;;;15.75;68.01;100804.44;107079;1268;25364;-56
2023/04/20 00:17:12;;;;;;;7.40;4.20;;;;;;;15.75;68.04;100804.94;106731;1275;22536;-56
2023/04/20 00:19:40;;;;;;;11.50;4.20;;;;;;;15.76;68.11;100803.17;106898;1268;25374;-56
2023/04/20 00:22:09;;;;;;;6.70;3.80;;;;;;;15.77;68.09;100801.89;106896;1268;22612;-56
2023/04/20 00:24:37;;;;;;;8.30;3.80;;;;;;;15.78;67.99;100799.42;106955;1268;25342;-56
2023/04/20 00:27:05;;;;;;;8.50;4.70;;;;;;;15.78;67.98;100798.69;106776;1275;24067;-56
2023/04/20 00:29:34;;;;;;;9.00;5.00;;;;;;;15.80;67.95;100799.16;106910;1253;25325;-56
2023/04/20 00:32:05;;;;;;;10.30;5.20;;;;;;;15.80;67.87;100797.55;106800;1274;26513;-57
2023/04/20 00:34:33;;;;;;;14.60;5.90;;;;;;;15.80;67.81;100796.16;106728;1275;22543;-55
2023/04/20 00:37:02;;;;;;;12.10;5.30;;;;;;;15.81;67.78;100799.81;106993;1268;25364;-56
2023/04/20 00:39:31;;;;;;;16.20;6.30;;;;;;;15.81;67.75;100798.23;106908;1268;25422;-56
2023/04/20 00:42:05;;;;;;;;;;;;;;;15.79;67.68;100792.55;106905;1268;25348;-56
2023/04/20 00:44:34;;;;;;;16.20;7.90;;;;;;;15.75;67.56;100792.89;106764;1270;22642;-56
2023/04/20 00:47:02;;;;;;;15.40;6.50;;;;;;;15.72;67.69;100792.67;106825;1255;22542;-56
2023/04/20 00:49:33;;;;;;;20.30;8.00;;;;;;;15.71;67.77;100791.14;106933;1254;25294;-56
2023/04/20 00:52:01;;;;;;;16.30;7.00;;;;;;;15.71;67.73;100792.03;106928;1268;25342;-56
2023/04/20 00:54:31;;;;;;;18.00;6.80;;;;;;;15.69;67.62;100791.58;106831;1272;22734;-56
2023/04/20 00:56:59;;;;;;;18.00;7.30;;;;;;;15.67;67.52;100794.45;106914;1268;25330;-56
2023/04/20 00:59:28;;;;;;;19.50;6.80;;;;;;;15.62;67.65;100788.00;106965;1268;25383;-56
2023/04/20 01:01:57;;;;;;;25.30;7.80;;;;;;;15.59;67.77;100787.98;106173;1268;1002864;-56
2023/04/20 01:04:25;;;;;;;20.30;7.20;;;;;;;15.57;67.87;100784.89;106923;1269;22521;-56
2023/04/20 01:06:54;;;;;;;13.20;6.60;;;;;;;15.58;67.92;100783.64;106756;1269;25348;-56
2023/04/20 01:09:22;;;;;;;12.80;6.70;;;;;;;15.58;67.95;100780.66;106888;1273;24218;-56
2023/04/20 01:11:51;;;;;;;12.00;6.60;;;;;;;15.59;67.83;100779.05;106898;1268;25483;-56
2023/04/20 01:14:19;;;;;;;13.10;6.60;;;;;;;15.58;67.74;100784.52;106922;1268;22523;-56
2023/04/20 01:16:48;;;;;;;12.90;6.10;;;;;;;15.57;67.79;100781.06;106890;1268;25454;-56
2023/04/20 01:19:17;;;;;;;14.30;6.90;;;;;;;15.56;67.77;100776.56;106533;1272;1003116;-56
2023/04/20 01:21:46;;;;;;;15.10;6.70;;;;;;;15.52;67.92;100776.20;106895;1268;26331;-56
2023/04/20 01:24:16;;;;;;;12.50;5.90;;;;;;;15.49;67.98;100775.27;106763;1269;22640;-56
2023/04/20 01:26:44;;;;;;;15.80;6.60;;;;;;;15.48;67.93;100774.11;106887;1269;25340;-56
2023/04/20 01:29:13;;;;;;;15.60;6.40;;;;;;;15.45;67.99;100774.41;106974;1268;25368;-56
2023/04/20 01:31:42;;;;;;;13.60;6.30;;;;;;;15.42;68.17;100770.64;106943;1268;24268;-56
2023/04/20 01:34:11;;;;;;;15.40;6.20;;;;;;;15.42;68.27;100763.85;106510;1269;24293;-56
2023/04/20 01:36:40;;;;;;;17.00;6.50;;;;;;;15.44;68.38;100760.45;106923;1269;24182;-55
2023/04/20 01:39:08;;;;;;;12.70;6.00;;;;;;;15.48;68.38;100754.86;107008;1268;22736;-56
2023/04/20 01:41:38;;;;;;;14.00;5.80;;;;;;;15.51;68.38;100751.27;106886;1269;25370;-56
2023/04/20 01:44:06;;;;;;;7.80;5.00;;;;;;;15.52;68.40;100745.78;106963;1269;22739;-56
2023/04/20 01:46:38;;;;;;;12.50;5.60;;;;;;;15.55;68.20;100740.06;106943;1268;22521;-56
2023/04/20 01:49:07;;;;;;;17.60;5.80;;;;;;;15.57;68.19;100737.88;106887;1269;25446;-55
2023/04/20 01:51:36;;;;;;;10.30;4.90;;;;;;;15.58;68.19;100734.15;106783;1257;22560;-55
2023/04/20 01:54:05;;;;;;;14.40;6.10;;;;;;;15.53;68.29;100734.56;107051;1268;25373;-55
2023/04/20 01:56:34;;;;;;;11.30;5.80;;;;;;;15.52;68.25;100731.77;106786;1271;22535;-55
2023/04/20 01:59:03;;;;;;;10.80;6.20;;;;;;;15.51;68.36;100740.38;106817;1272;25485;-55
2023/04/20 02:01:34;;;;;;;11.60;5.00;;;;;;;15.51;68.28;100739.89;106999;1268;25364;-55
2023/04/20 02:04:02;;;;;;;10.80;5.30;;;;;;;15.52;68.22;100743.88;106897;1269;22518;-55
2023/04/20 02:06:32;;;;;;;10.00;5.30;;;;;;;15.52;68.19;100742.80;106827;1269;25367;-56
2023/04/20 02:09:00;;;;;;;11.10;6.30;;;;;;;15.53;68.16;100747.48;106981;1269;25199;-55
2023/04/20 02:11:29;;;;;;;10.50;5.20;;;;;;;15.55;68.05;100748.46;106874;1269;25830;-55
2023/04/20 02:13:57;;;;;;;12.80;5.80;;;;;;;15.55;68.05;100744.92;106720;1269;22523;-55
2023/04/20 02:16:28;;;;;;;12.60;5.80;;;;;;;15.56;68.06;100746.68;106896;1269;25432;-55
2023/04/20 02:18:56;;;;;;;9.80;4.50;;;;;;;15.57;68.05;100747.67;106909;1268;22526;-55
2023/04/20 02:21:25;;;;;;;8.40;5.50;;;;;;;15.55;67.96;100744.77;106969;1268;25367;-56
2023/04/20 02:23:53;;;;;;;7.90;4.90;;;;;;;15.53;68.09;100749.41;106957;1273;22643;-55
2023/04/20 02:26:22;;;;;;;11.80;5.40;;;;;;;15.51;68.16;100748.10;106902;1260;24232;-56
2023/04/20 02:28:50;;;;;;;9.80;5.00;;;;;;;15.50;68.07;100747.10;106945;1268;22644;-55
2023/04/20 02:31:19;;;;;;;12.20;5.80;;;;;;;15.48;68.06;100749.79;106980;1268;26498;-56
2023/04/20 02:33:48;;;;;;;13.30;6.40;;;;;;;15.46;67.99;100747.94;106742;1271;26631;-56
2023/04/20 02:36:17;;;;;;;21.30;5.80;;;;;;;15.54;67.69;100751.45;107089;1268;25332;-56
2023/04/20 02:38:45;;;;;;;13.90;6.40;;;;;;;15.52;67.75;100746.66;106972;1268;25399;-56
2023/04/20 02:41:14;;;;;;;12.70;5.80;;;;;;;15.51;67.82;100749.33;107039;1268;25335;-56
2023/04/20 02:43:42;;;;;;;23.50;6.80;;;;;;;15.50;67.84;100750.75;107063;1273;25531;-56
2023/04/20 02:46:11;;;;;;;22.00;8.20;;;;;;;15.47;67.79;100748.10;107071;1268;22608;-56
2023/04/20 02:48:40;;;;;;;15.20;6.20;;;;;;;15.44;67.84;100750.67;106981;1268;22523;-56
2023/04/20 02:51:09;;;;;;;23.30;7.80;;;;;;;15.46;67.84;100750.25;106872;1268;25486;-56
2023/04/20 02:53:42;;;;;;;18.00;7.10;;;;;;;15.45;67.69;100755.51;106919;1269;25298;-56
2023/04/20 02:56:23;;;;;;;13.30;6.10;;;;;;;15.42;67.76;100759.64;106898;1273;22530;-56
2023/04/20 02:58:54;;;;;;;15.10;6.60;;;;;;;15.40;67.76;100759.04;106730;1272;24253;-56
2023/04/20 03:01:43;;;;;;;14.00;5.80;;;;;;;15.38;67.93;100760.67;107028;1269;26507;-56
2023/04/20 03:04:15;;;;;;;11.80;5.70;;;;;;;15.38;67.94;100760.67;106974;1268;25347;-56
2023/04/20 03:07:17;;;;;;;11.30;5.10;;;;;;;15.38;67.96;100760.99;106364;1278;25352;-56
2023/04/20 03:09:46;;;;;;;10.80;4.90;;;;;;;15.38;67.85;100764.16;106495;1276;22633;-56
2023/04/20 03:12:41;;;;;;;9.50;6.00;;;;;;;15.35;67.97;100763.61;103506;1272;1004331;-56
2023/04/20 03:15:27;;;;;;;11.80;6.50;;;;;;;15.34;68.10;100769.05;106713;1273;25345;-56
2023/04/20 03:18:03;;;;;;;12.70;5.20;;;;;;;15.33;68.08;100770.14;106598;1275;25358;-56
2023/04/20 03:20:32;;;;;;;11.00;5.90;;;;;;;15.31;68.19;100769.35;106659;1278;25287;-56
2023/04/20 03:23:00;;;;;;;8.50;5.50;;;;;;;15.29;68.33;100767.70;106409;1274;25316;-56
2023/04/20 03:25:30;;;;;;;13.20;5.70;;;;;;;15.26;68.43;100768.15;106251;1277;25339;-56
2023/04/20 03:28:02;;;;;;;8.70;5.70;;;;;;;15.25;68.45;100773.63;106468;1275;22530;-56
2023/04/20 03:30:31;;;;;;;9.30;6.40;;;;;;;15.22;68.53;100770.80;106460;1278;25233;-56
2023/04/20 03:33:04;;;;;;;9.10;7.00;;;;;;;15.17;68.74;100768.55;106276;1266;25358;-56
2023/04/20 03:35:34;;;;;;;8.50;5.90;;;;;;;15.02;69.32;100773.49;106713;1277;25390;-56
2023/04/20 03:38:02;;;;;;;10.50;6.20;;;;;;;15.00;69.58;100770.95;106456;1274;25367;-56
2023/04/20 03:40:31;;;;;;;8.10;5.90;;;;;;;15.00;69.54;100771.86;106628;1273;25493;-55
2023/04/20 03:42:59;;;;;;;8.00;5.80;;;;;;;14.94;69.61;100772.77;106360;1269;24338;-55
2023/04/20 03:45:28;;;;;;;9.50;6.50;;;;;;;14.96;69.72;100773.91;106962;1261;23429;-56
2023/04/20 03:47:56;;;;;;;10.10;6.60;;;;;;;15.04;69.41;100772.53;106947;1273;25367;-55
2023/04/20 03:50:25;;;;;;;8.90;7.30;;;;;;;15.10;69.36;100773.21;106676;1269;22543;-55
2023/04/20 03:52:54;;;;;;;8.90;7.40;;;;;;;15.08;69.34;100771.34;106804;1269;22770;-56
2023/04/20 03:55:23;;;;;;;11.90;7.10;;;;;;;15.13;69.21;100768.36;105522;1269;1003714;-56
2023/04/20 03:57:57;;;;;;;9.00;6.80;;;;;;;15.14;69.12;100765.16;106916;1268;25356;-56
2023/04/20 04:00:26;;;;;;;8.70;7.10;;;;;;;14.93;69.87;100764.79;106816;1271;22524;-56
2023/04/20 04:02:58;;;;;;;9.10;6.60;;;;;;;14.89;70.21;100765.31;106909;1268;25367;-56
2023/04/20 04:05:28;;;;;;;11.80;8.10;;;;;;;14.89;70.11;100764.96;106957;1268;22561;-56
2023/04/20 04:07:56;;;;;;;11.60;8.80;;;;;;;14.88;70.08;100765.88;106859;1269;25498;-55
2023/04/20 04:10:25;;;;;;;16.30;8.70;;;;;;;14.85;70.16;100767.72;107046;1269;22526;-56
2023/04/20 04:12:54;;;;;;;14.40;10.10;;;;;;;14.82;70.04;100765.08;106814;1269;22620;-56
2023/04/20 04:15:23;;;;;;;15.00;10.00;;;;;;;14.79;70.19;100769.36;106963;1268;24347;-56
2023/04/20 04:17:57;;;;;;;13.60;9.10;;;;;;;14.77;70.26;100774.52;106839;1269;25348;-56
2023/04/20 04:20:27;;;;;;;14.60;9.00;;;;;;;14.74;70.18;100774.98;106820;1274;25349;-56
2023/04/20 04:22:57;;;;;;;16.70;9.30;;;;;;;14.70;70.21;100775.98;106993;1268;24468;-56
2023/04/20 04:25:32;;;;;;;12.70;9.10;;;;;;;14.68;70.32;100779.18;107038;1269;25324;-56
2023/04/20 04:28:01;;;;;;;19.20;10.60;;;;;;;14.68;70.30;100778.85;106786;1271;25467;-56
2023/04/20 04:30:30;;;;;;;15.90;10.50;;;;;;;14.67;70.46;100780.64;106906;1271;25444;-56
2023/04/20 04:32:59;;;;;;;17.40;10.70;;;;;;;14.67;70.47;100780.63;106959;1268;25418;-56
2023/04/20 04:35:29;;;;;;;18.00;10.60;;;;;;;14.67;70.65;100780.45;106653;1269;25342;-56
2023/04/20 04:37:58;;;;;;;12.50;9.30;;;;;;;14.69;70.73;100783.52;106948;1268;25334;-56
2023/04/20 04:40:26;;;;;;;14.90;9.20;;;;;;;14.73;70.65;100779.89;106707;1276;25519;-56
2023/04/20 04:42:55;;;;;;;18.50;10.20;;;;;;;14.75;70.43;100783.68;106913;1269;25363;-56
2023/04/20 04:45:24;;;;;;;13.60;9.40;;;;;;;14.75;70.28;100781.22;106796;1273;22646;-55
2023/04/20 04:47:53;;;;;;;14.40;10.00;;;;;;;14.76;70.40;100784.50;106918;1273;25367;-55
2023/04/20 04:50:21;;;;;;;12.60;9.80;;;;;;;14.76;70.24;100784.66;106172;1268;1003521;-55
2023/04/20 04:52:51;;;;;;;13.20;9.50;;;;;;;14.77;70.10;100785.69;106879;1270;24330;-55
2023/04/20 04:55:20;;;;;;;12.20;9.60;;;;;;;14.76;69.96;100787.47;106921;1269;25364;-55
2023/04/20 04:57:48;;;;;;;14.80;9.90;;;;;;;14.75;69.94;100789.61;106729;1269;24339;-56
2023/04/20 05:00:17;;;;;;;15.70;9.70;;;;;;;14.75;69.92;100786.63;106928;1269;24241;-56
2023/04/20 05:02:46;;;;;;;15.30;9.60;;;;;;;14.76;69.94;100784.31;106933;1269;24196;-56
2023/04/20 05:05:15;;;;;;;17.30;10.50;;;;;;;14.77;69.83;100783.57;106986;1269;25332;-56
2023/04/20 05:07:44;;;;;;;19.10;11.00;;;;;;;14.79;69.84;100783.14;106879;1273;25390;-56
2023/04/20 05:10:12;;;;;;;19.80;10.80;;;;;;;14.81;69.79;100780.11;106749;1274;24397;-56
2023/04/20 05:12:43;;;;;;;17.20;11.30;;;;;;;14.83;69.77;100779.18;106717;1273;25361;-55
2023/04/20 05:15:11;;;;;;;16.30;10.40;;;;;;;14.83;69.71;100779.67;106934;1270;22720;-56
2023/04/20 05:17:40;;;;;;;13.40;10.10;;;;;;;14.85;69.65;100781.36;106752;1269;25696;-56
2023/04/20 05:20:10;;;;;;;15.70;10.30;;;;;;;14.86;69.53;100782.36;106692;1272;25785;-55
2023/04/20 05:22:39;;;;;;;14.60;10.70;;;;;;;14.90;69.49;100785.36;106953;1269;22546;-56
2023/04/20 05:25:08;;;;;;;16.90;11.20;;;;;;;14.94;69.51;100790.08;106921;1270;22793;-56
2023/04/20 05:27:40;;;;;;;13.10;9.70;;;;;;;14.98;69.33;100791.48;106827;1276;24284;-56
2023/04/20 05:30:09;;;;;;;13.10;10.20;;;;;;;15.00;69.21;100795.09;106903;1269;25332;-55
2023/04/20 05:32:49;;;;;;;15.60;10.00;;;;;;;15.04;69.05;100800.16;106724;1269;25532;-55
2023/04/20 05:35:20;;;;;;;13.20;9.60;;;;;;;15.05;68.74;100800.98;107062;1269;24207;-55
2023/04/20 05:37:48;;;;;;;14.50;9.70;;;;;;;15.05;68.56;100800.28;106810;1269;22754;-55
2023/04/20 05:40:17;;;;;;;13.30;9.80;;;;;;;15.05;68.58;100799.77;106996;1269;25519;-55
2023/04/20 05:42:46;;;;;;;18.40;10.70;;;;;;;15.03;68.62;100799.52;106658;1276;25374;-55
2023/04/20 05:45:14;;;;;;;14.60;10.20;;;;;;;15.02;68.60;100799.88;106803;1269;25362;-55
2023/04/20 05:47:52;;;;;;;17.60;10.90;;;;;;;15.04;68.56;100800.88;106978;1268;24350;-55
2023/04/20 05:50:21;;;;;;;17.10;11.50;;;;;;;15.04;68.65;100798.26;106904;1269;25349;-54
2023/04/20 05:52:50;;;;;;;18.20;10.90;;;;;;;15.05;68.61;100799.08;106864;1268;25321;-55
2023/04/20 05:55:19;;;;;;;17.40;11.70;;;;;;;15.07;68.57;100795.34;106722;1273;25422;-55
2023/04/20 05:57:50;;;;;;;19.10;11.10;;;;;;;15.08;68.50;100794.94;106989;1276;25374;-55
2023/04/20 06:00:19;;;;;;;17.20;11.20;;;;;;;15.08;68.46;100797.39;106935;1261;22514;-55
2023/04/20 06:02:50;;;;;;;15.60;10.90;;;;;;;15.07;68.41;100794.47;106882;1268;22529;-54
2023/04/20 06:05:19;;;;;;;19.40;11.00;;;;;;;15.06;68.46;100794.68;106766;1275;24351;-56
2023/04/20 06:07:48;;;;;;;17.70;10.60;;;;;;;15.07;68.40;100792.71;106859;1272;22607;-56
2023/04/20 06:10:17;;;;;;;15.60;9.90;;;;;;;15.07;68.32;100792.16;106893;1273;25342;-56
2023/04/20 06:12:46;;;;;;;31.10;10.40;;;;;;;15.09;68.31;100793.34;106414;1276;24325;-55
2023/04/20 06:15:15;;;;;;;19.60;10.10;;;;;;;15.12;68.08;100795.47;106094;1269;1002965;-55
2023/04/20 06:17:43;;;;;;;24.50;11.20;;;;;;;15.13;67.85;100795.79;106780;1275;25564;-55
2023/04/20 06:20:12;;;;;;;16.40;11.50;;;;;;;15.15;67.85;100796.76;106865;1275;25535;-55
2023/04/20 06:22:44;;;;;;;23.80;12.10;;;;;;;15.16;67.99;100798.30;106835;1273;23304;-55
2023/04/20 06:25:14;;;;;;;18.10;11.70;;;;;;;15.18;68.00;100796.98;107011;1270;22516;-55
2023/04/20 06:27:43;;;;;;;19.40;12.80;;;;;;;15.20;67.99;100797.94;106956;1270;25419;-55
2023/04/20 06:30:12;;;;;;;20.30;12.70;;;;;;;15.22;68.15;100797.86;106882;1275;24357;-55
2023/04/20 06:32:40;;;;;;;18.90;12.30;;;;;;;15.23;68.14;100797.11;106932;1273;22634;-56
2023/04/20 06:35:09;;;;;;;23.40;15.30;;;;;;;15.22;68.07;100799.44;106910;1270;26512;-55
2023/04/20 06:37:39;;;;;;;19.90;14.00;;;;;;;15.22;68.09;100801.16;106910;1269;25373;-55
2023/04/20 06:40:07;;;;;;;16.90;14.10;;;;;;;15.22;68.31;100804.85;106980;1268;25291;-55
2023/04/20 06:42:36;;;;;;;22.90;14.90;;;;;;;15.23;68.32;100805.86;106715;1274;25463;-55
2023/04/20 06:45:06;;;;;;;16.50;13.80;;;;;;;15.24;68.37;100810.70;107028;1269;25348;-55
2023/04/20 06:47:34;;;;;;;19.70;14.30;;;;;;;15.25;68.42;100810.84;106760;1276;22982;-56
2023/04/20 06:50:08;;;;;;;23.10;14.70;;;;;;;15.27;68.38;100812.17;106988;1271;24349;-55
2023/04/20 06:52:38;;;;;;;20.00;14.90;;;;;;;15.26;68.13;100811.16;106969;1270;24289;-55
2023/04/20 06:55:07;;;;;;;19.60;13.90;;;;;;;15.26;68.05;100811.69;106913;1268;22515;-55
2023/04/20 06:57:38;;;;;;;16.10;13.40;;;;;;;15.25;67.98;100812.41;106803;1276;24253;-56
2023/04/20 07:00:08;;;;;;;18.40;12.50;;;;;;;15.23;67.99;100812.13;106704;1276;23991;-56
2023/04/20 07:02:46;;;;;;;17.30;12.60;;;;;;;15.21;68.03;100812.92;106919;1270;22546;-55
2023/04/20 07:05:16;;;;;;;14.00;11.80;;;;;;;15.20;68.04;100813.50;106893;1269;22645;-56
2023/04/20 07:07:45;;;;;;;13.60;10.90;;;;;;;15.21;68.05;100815.73;106964;1259;24271;-56
2023/04/20 07:10:13;;;;;;;13.30;11.30;;;;;;;15.20;68.06;100813.34;106916;1272;23754;-56
2023/04/20 07:12:42;;;;;;;13.30;10.30;;;;;;;15.20;68.29;100814.70;106821;1270;24341;-56
2023/04/20 07:15:11;;;;;;;13.30;11.30;;;;;;;15.24;68.32;100815.09;106892;1269;22522;-56
2023/04/20 07:17:40;;;;;;;11.20;10.10;;;;;;;15.27;68.39;100814.41;106900;1269;24266;-56
2023/04/20 07:20:10;;;;;;;14.70;11.10;;;;;;;15.30;68.21;100817.46;106857;1272;22663;-56
2023/04/20 07:22:38;;;;;;;13.50;11.40;;;;;;;15.30;68.32;100817.27;106773;1257;24289;-55
2023/04/20 07:25:08;;;;;;;16.60;12.00;;;;;;;15.32;68.36;100817.53;106704;1272;25413;-56
2023/04/20 07:27:38;;;;;;;14.60;12.60;;;;;;;15.36;68.48;100816.52;106962;1268;25335;-56
2023/04/20 07:30:07;;;;;;;13.20;11.30;;;;;;;15.40;68.34;100818.29;106999;1269;22344;-56
2023/04/20 07:32:36;;;;;;;13.50;12.00;;;;;;;15.42;68.33;100817.86;106643;1269;25383;-57
2023/04/20 07:35:05;;;;;;;14.10;11.90;;;;;;;15.46;68.38;100817.55;106769;1270;25341;-56
2023/04/20 07:37:34;;;;;;;14.50;12.60;;;;;;;15.49;68.29;100817.41;106877;1268;22539;-56
2023/04/20 07:40:05;;;;;;;14.40;12.30;;;;;;;15.53;68.18;100817.06;106956;1270;25349;-55
2023/04/20 07:42:35;;;;;;;19.40;13.00;;;;;;;15.54;67.86;100818.45;106764;1273;25345;-56
2023/04/20 07:45:05;;;;;;;19.60;15.20;;;;;;;15.53;67.85;100819.52;106811;1270;24386;-56
2023/04/20 07:47:34;;;;;;;17.80;14.40;;;;;;;15.51;67.80;100822.05;106834;1272;24516;-56
2023/04/20 07:50:04;;;;;;;23.00;16.30;;;;;;;15.49;67.67;100819.36;106932;1269;24389;-56
2023/04/20 07:52:32;;;;;;;19.30;15.10;;;;;;;15.47;67.64;100818.88;106959;1268;24261;-56
2023/04/20 07:55:01;;;;;;;20.00;15.60;;;;;;;15.45;67.62;100818.48;106961;1273;24341;-56
2023/04/20 07:57:30;;;;;;;23.40;17.10;;;;;;;15.44;67.72;100816.55;106841;1268;25393;-56
2023/04/20 07:59:58;;;;;;;20.80;16.50;;;;;;;15.45;67.91;100821.42;106879;1268;22542;-56
2023/04/20 08:02:27;;;;;;;21.30;15.40;;;;;;;15.48;67.87;100818.52;106805;1270;25345;-56
2023/04/20 08:04:56;;;;;;;18.80;15.80;;;;;;;15.48;67.90;100817.44;106855;1272;25335;-56
2023/04/20 08:07:25;;;;;;;18.30;15.40;;;;;;;15.49;67.98;100815.69;106670;1269;23886;-56
2023/04/20 08:09:53;;;;;;;17.30;13.60;;;;;;;15.51;68.04;100818.05;106703;1269;25422;-56
2023/04/20 08:12:22;;;;;;;15.40;12.70;;;;;;;15.51;68.08;100819.27;106946;1269;25318;-55
2023/04/20 08:14:50;;;;;;;15.70;12.90;;;;;;;15.52;67.99;100817.27;106835;1269;25329;-55
2023/04/20 08:17:19;;;;;;;14.30;12.50;;;;;;;15.51;68.03;100818.91;106788;1269;25383;-55
2023/04/20 08:19:48;;;;;;;14.70;12.20;;;;;;;15.52;68.16;100815.54;106845;1273;22534;-55
2023/04/20 08:22:16;;;;;;;14.10;12.40;;;;;;;15.54;68.12;100814.59;106883;1269;24404;-55
2023/04/20 08:24:45;;;;;;;13.70;12.30;;;;;;;15.55;68.11;100814.00;106123;1268;1003267;-55
2023/04/20 08:27:14;;;;;;;14.80;12.50;;;;;;;15.58;67.91;100817.41;106877;1269;22520;-55
2023/04/20 08:29:42;;;;;;;14.10;12.00;;;;;;;15.59;67.72;100818.06;106822;1273;24218;-55
2023/04/20 08:32:11;;;;;;;13.60;11.20;;;;;;;15.57;67.63;100815.84;106892;1273;25334;-54
2023/04/20 08:34:40;;;;;;;16.20;13.80;;;;;;;15.53;67.57;100818.80;106985;1268;22556;-54
2023/04/20 08:37:09;;;;;;;16.80;13.70;;;;;;;15.50;67.67;100820.19;106724;1276;25347;-55
2023/04/20 08:39:37;;;;;;;19.20;13.90;;;;;;;15.45;67.86;100817.39;107353;1269;25511;-54
2023/04/20 08:42:06;;;;;;;17.80;14.20;;;;;;;15.44;68.09;100818.84;107241;1261;22524;-55
2023/04/20 08:47:58;;;;;;;15.50;13.40;;;;;;;15.46;68.73;100813.69;103737;1305;545112;-55
2023/04/20 08:50:27;;;;;;;17.00;13.60;;;;;;;15.45;68.82;100816.00;106085;1276;22547;-55
2023/04/20 08:52:56;;;;;;;15.90;14.00;;;;;;;15.48;69.18;100815.88;106031;1285;24356;-55
2023/04/20 08:55:25;;;;;;;18.00;12.80;;;;;;;15.52;69.41;100813.25;105995;1282;25256;-55
2023/04/20 08:57:54;;;;;;;16.20;13.40;;;;;;;15.55;68.96;100811.40;105727;1288;25361;-55
2023/04/20 09:00:22;;;;;;;16.90;13.40;;;;;;;15.52;69.04;100811.89;105897;1285;22540;-55
2023/04/20 09:02:53;;;;;;;19.50;13.60;;;;;;;15.52;68.96;100809.76;106288;1276;278638;-55
2023/04/20 09:05:29;;;;;;;16.60;13.80;;;;;;;15.50;68.95;100811.96;106415;1276;25535;-55
2023/04/20 09:07:59;;;;;;;19.80;14.20;;;;;;;15.49;68.80;100809.91;106499;1260;22625;-55
2023/04/20 09:10:39;;;;;;;17.50;14.00;;;;;;;15.46;68.87;100809.83;106718;1276;22522;-55
2023/04/20 09:13:08;;;;;;;16.70;13.90;;;;;;;15.46;68.92;100809.84;106864;1261;22523;-55
2023/04/20 09:15:37;;;;;;;16.30;13.60;;;;;;;15.46;69.03;100809.83;106514;1266;25403;-55
2023/04/20 09:18:16;;;;;;;16.20;11.60;;;;;;;15.45;69.00;100814.45;106265;1276;22575;-55
2023/04/20 09:20:45;;;;;;;18.00;14.30;;;;;;;15.43;68.94;100817.98;106452;1269;23123;-55
2023/04/20 09:23:17;;;;;;;12.30;10.90;;;;;;;15.43;69.01;100813.44;106352;1276;25478;-55
2023/04/20 09:25:48;;;;;;;16.20;13.30;;;;;;;15.40;68.69;100812.15;107001;1270;25360;-55
2023/04/20 09:28:17;;;;;;;6.50;5.90;;;;;;;15.35;68.63;100814.27;106159;1256;1002896;-55
2023/04/20 09:30:47;;;;;;;4.70;3.50;;;;;;;15.31;68.46;100816.70;106875;1269;22528;-55
2023/04/20 09:33:18;;;;;;;3.50;3.20;;;;;;;15.25;68.52;100810.15;107161;1269;24346;-54
2023/04/20 09:35:46;;;;;;;3.30;3.00;;;;;;;15.24;68.53;100810.55;107032;1269;25335;-53
2023/04/20 09:38:15;;;;;;;4.50;3.30;;;;;;;15.02;69.47;100809.33;106938;1269;24375;-55
2023/04/20 09:40:44;;;;;;;3.80;3.10;;;;;;;14.95;70.03;100811.01;106970;1270;22615;-55
2023/04/20 09:43:17;;;;;;;2.70;2.40;;;;;;;14.98;70.13;100810.87;106832;1268;25325;-55
2023/04/20 09:45:45;;;;;;;2.10;2.00;;;;;;;15.04;70.14;100810.48;107128;1261;22524;-55
2023/04/20 09:48:17;;;;;;;2.70;2.10;;;;;;;15.23;69.43;100810.39;107230;1268;25359;-55
2023/04/20 09:50:47;;;;;;;3.60;2.50;;;;;;;15.29;68.91;100808.59;106917;1269;22523;-55
2023/04/20 09:53:18;;;;;;;2.20;2.00;;;;;;;15.30;68.69;100814.33;107177;1269;24228;-55
2023/04/20 09:55:48;;;;;;;3.00;2.00;;;;;;;15.28;68.45;100806.16;107147;1269;25379;-55
2023/04/20 09:58:19;;;;;;;3.70;2.10;;;;;;;15.27;68.32;100810.26;107452;1256;22537;-55
2023/04/20 10:00:47;;;;;;;3.30;2.60;;;;;;;15.24;68.40;100812.80;107248;1267;22528;-54
2023/04/20 10:03:17;;;;;;;3.60;2.50;;;;;;;15.24;68.80;100810.36;106886;1263;22732;-54
2023/04/20 10:05:46;;;;;;;2.70;2.10;;;;;;;15.22;69.00;100814.44;107413;1262;25425;-54
2023/04/20 10:08:15;;;;;;;3.20;2.40;;;;;;;15.19;68.87;100810.55;107422;1266;25349;-55
2023/04/20 10:14:14;;;;;;;2.20;1.90;;;;;;;15.10;69.54;100815.11;103757;1307;545596;-54
2023/04/20 10:16:44;;;;;;;3.00;2.10;;;;;;;15.12;69.89;100817.67;106376;1274;22539;-55
2023/04/20 10:19:12;;;;;;;3.70;2.20;;;;;;;15.18;69.85;100813.05;106175;1281;23844;-55
2023/04/20 10:21:48;;;;;;;3.00;2.00;;;;;;;15.22;69.76;100815.86;106072;1282;25359;-55
2023/04/20 10:24:29;;;;;;;3.90;2.40;;;;;;;15.24;69.70;100816.65;105865;1284;23898;-55
2023/04/20 10:26:57;;;;;;;2.40;2.20;;;;;;;15.29;69.63;100822.38;105462;1279;216348;-55
2023/04/20 10:29:26;;;;;;;2.10;1.90;;;;;;;15.31;69.42;100823.17;105751;1283;25360;-55
2023/04/20 10:31:55;;;;;;;2.70;2.20;;;;;;;15.32;69.32;100821.20;105945;1278;23922;-55
2023/04/20 10:34:34;;;;;;;4.40;2.30;;;;;;;15.34;69.34;100818.52;105639;1279;25369;-55
2023/04/20 10:37:09;;;;;;;2.10;1.80;;;;;;;15.37;69.39;100819.61;106194;1278;24220;-55
2023/04/20 10:39:45;;;;;;;2.50;2.00;;;;;;;15.40;69.09;100821.23;106083;1279;22530;-57
2023/04/20 10:42:13;;;;;;;3.30;2.60;;;;;;;15.43;69.04;100822.54;105843;1286;22536;-55
2023/04/20 10:44:52;;;;;;;2.40;1.90;;;;;;;15.47;69.03;100821.69;106191;1282;25347;-55
2023/04/20 10:47:28;;;;;;;3.90;2.10;;;;;;;15.51;68.92;100815.39;106333;1281;25270;-55
2023/04/20 10:50:08;;;;;;;3.50;2.10;;;;;;;15.55;68.71;100818.39;106054;1284;25393;-55
2023/04/20 10:52:37;;;;;;;2.20;2.00;;;;;;;15.57;68.46;100820.94;106292;1281;22527;-55
2023/04/20 10:55:16;;;;;;;2.70;2.30;;;;;;;15.55;68.26;100821.88;106340;1279;24328;-54
2023/04/20 10:57:45;;;;;;;2.30;2.10;;;;;;;15.51;68.17;100818.73;106076;1279;22554;-55
2023/04/20 11:00:15;;;;;;;2.60;2.20;;;;;;;15.45;68.21;100820.55;106280;1285;25352;-55
2023/04/20 11:02:55;;;;;;;3.20;2.60;;;;;;;15.41;68.44;100821.54;106019;1279;22552;-55
2023/04/20 11:05:26;;;;;;;3.20;2.50;;;;;;;15.39;68.54;100818.30;106350;1279;24365;-55
2023/04/20 11:07:58;;;;;;;2.90;2.50;;;;;;;15.38;68.72;100819.22;106355;1279;25394;-55
2023/04/20 11:10:40;;;;;;;1.80;1.60;;;;;;;15.37;68.62;100818.91;106379;1279;25417;-55
2023/04/20 11:13:22;;;;;;;2.10;1.60;;;;;;;15.27;68.63;100820.73;106341;1279;22523;-55
2023/04/20 11:15:51;;;;;;;2.70;1.60;;;;;;;15.18;68.69;100816.55;106335;1279;22534;-55
2023/04/20 11:18:20;;;;;;;4.90;2.10;;;;;;;15.13;68.90;100820.76;106344;1279;25342;-55
2023/04/20 11:20:55;;;;;;;8.10;3.80;;;;;;;15.12;68.95;100818.73;105829;1286;23822;-55
2023/04/20 11:23:27;;;;;;;4.30;2.30;;;;;;;15.10;69.20;100815.84;106270;1282;23906;-55
2023/04/20 11:25:55;;;;;;;4.50;2.60;;;;;;;15.11;69.43;100815.27;105903;1279;22543;-55
2023/04/20 11:28:29;;;;;;;6.20;3.00;;;;;;;15.09;69.33;100818.83;106348;1282;24419;-55